createdAt,value
2022-08-28T00:02:00.986Z,60.74
2022-08-28T00:04:28.667Z,61.59
2022-08-28T00:06:56.031Z,62.93
2022-08-28T00:09:23.402Z,63.33
2022-08-28T00:11:51.045Z,63.12
2022-08-28T00:14:21.217Z,64.66
2022-08-28T00:16:48.915Z,64.55
2022-08-28T00:19:17.502Z,61.72
2022-08-28T00:21:45.263Z,62.80
2022-08-28T00:24:12.772Z,63.29
2022-08-28T00:26:59.316Z,65.52
2022-08-28T00:29:26.685Z,65.55
2022-08-28T00:31:55.394Z,66.56
2022-08-28T00:34:32.968Z,66.50
2022-08-28T00:37:01.298Z,65.49
2022-08-28T00:39:28.759Z,62.81
2022-08-28T00:41:58.016Z,65.88
2022-08-28T00:46:55.413Z,65.50
2022-08-28T00:49:33.938Z,64.76
2022-08-28T00:52:12.451Z,65.03
2022-08-28T00:54:59.139Z,66.38
2022-08-28T00:57:37.899Z,65.06
2022-08-28T01:00:08.029Z,67.01
2022-08-28T01:02:35.780Z,66.17
2022-08-28T01:05:03.416Z,67.28
2022-08-28T01:07:31.218Z,66.51
2022-08-28T01:10:00.240Z,66.10
2022-08-28T01:12:29.076Z,66.60
2022-08-28T01:15:01.418Z,67.25
2022-08-28T01:17:31.022Z,65.03
2022-08-28T01:20:02.573Z,65.19
2022-08-28T01:22:37.284Z,65.16
2022-08-28T01:25:07.434Z,66.01
2022-08-28T01:27:35.136Z,65.79
2022-08-28T01:30:02.510Z,64.14
2022-08-28T01:32:37.696Z,67.01
2022-08-28T01:35:06.970Z,65.76
2022-08-28T01:37:34.358Z,65.93
2022-08-28T01:40:02.142Z,65.91
2022-08-28T01:42:29.881Z,65.64
2022-08-28T01:44:57.322Z,66.04
2022-08-28T01:47:24.694Z,65.88
2022-08-28T01:49:52.366Z,65.93
2022-08-28T01:52:19.751Z,64.90
2022-08-28T01:54:54.050Z,65.61
2022-08-28T01:57:22.545Z,66.82
2022-08-28T01:59:50.836Z,68.65
2022-08-28T02:02:18.455Z,66.99
2022-08-28T02:04:48.226Z,67.74
2022-08-28T02:07:17.006Z,67.82
2022-08-28T02:09:44.348Z,67.13
2022-08-28T02:12:11.976Z,70.02
2022-08-28T02:14:39.586Z,69.39
2022-08-28T02:17:07.142Z,69.19
2022-08-28T02:19:34.806Z,66.83
2022-08-28T02:22:03.977Z,65.65
2022-08-28T02:24:31.350Z,66.51
2022-08-28T02:26:58.954Z,66.55
2022-08-28T02:29:27.288Z,67.04
2022-08-28T02:31:55.809Z,65.10
2022-08-28T02:34:23.712Z,65.11
2022-08-28T02:36:51.058Z,65.49
2022-08-28T02:39:18.463Z,65.40
2022-08-28T02:41:46.108Z,66.14
2022-08-28T02:44:13.445Z,66.84
2022-08-28T02:46:40.834Z,70.78
2022-08-28T02:49:08.478Z,75.45
2022-08-28T02:51:36.114Z,74.81
2022-08-28T02:54:03.529Z,73.74
2022-08-28T02:56:31.279Z,75.62
2022-08-28T02:58:58.631Z,74.26
2022-08-28T03:01:26.057Z,76.05
2022-08-28T03:03:53.834Z,75.54
2022-08-28T03:06:22.949Z,74.07
2022-08-28T03:08:50.337Z,73.95
2022-08-28T03:11:18.024Z,75.14
2022-08-28T03:13:45.395Z,74.64
2022-08-28T03:16:12.942Z,73.70
2022-08-28T03:18:41.447Z,76.23
2022-08-28T03:21:09.050Z,74.86
2022-08-28T03:23:37.051Z,73.93
2022-08-28T03:26:10.306Z,74.82
2022-08-28T03:28:40.209Z,75.60
2022-08-28T03:31:11.851Z,73.85
2022-08-28T03:33:42.684Z,72.22
2022-08-28T03:36:11.125Z,71.73
2022-08-28T03:38:38.494Z,71.49
2022-08-28T03:41:12.482Z,68.97
2022-08-28T03:43:40.201Z,71.80
2022-08-28T03:46:07.766Z,68.96
2022-08-28T03:48:36.831Z,69.25
2022-08-28T03:51:08.873Z,67.89
2022-08-28T03:53:37.204Z,68.78
2022-08-28T03:56:08.946Z,67.80
2022-08-28T03:58:36.300Z,66.32
2022-08-28T04:01:03.801Z,66.24
2022-08-28T04:03:31.533Z,67.18
2022-08-28T04:05:58.969Z,68.97
2022-08-28T04:08:26.366Z,69.86
2022-08-28T04:10:55.153Z,68.62
2022-08-28T04:13:22.824Z,66.53
2022-08-28T04:16:00.649Z,67.01
2022-08-28T04:18:28.479Z,66.03
2022-08-28T04:21:03.719Z,65.47
2022-08-28T04:23:31.370Z,63.08
2022-08-28T04:25:58.753Z,62.57
2022-08-28T04:28:26.447Z,62.13
2022-08-28T04:30:54.641Z,62.35
2022-08-28T04:33:23.128Z,62.49
2022-08-28T04:35:50.562Z,61.70
2022-08-28T04:38:18.457Z,61.82
2022-08-28T04:40:45.819Z,61.57
2022-08-28T04:43:13.261Z,61.99
2022-08-28T04:45:44.775Z,62.97
2022-08-28T04:48:15.182Z,63.89
2022-08-28T04:50:43.888Z,63.85
2022-08-28T04:53:11.590Z,61.86
2022-08-28T04:55:54.166Z,63.93
2022-08-28T04:58:23.798Z,63.14
2022-08-28T05:00:52.122Z,62.13
2022-08-28T05:03:19.578Z,60.12
2022-08-28T05:05:48.674Z,60.88
2022-08-28T05:08:17.796Z,60.56
2022-08-28T05:10:46.379Z,59.79
2022-08-28T05:13:15.416Z,59.31
2022-08-28T05:15:44.548Z,60.22
2022-08-28T05:18:14.219Z,60.00
2022-08-28T05:20:44.918Z,57.89
2022-08-28T05:23:12.901Z,56.26
2022-08-28T05:25:42.009Z,59.58
2022-08-28T05:28:12.305Z,59.32
2022-08-28T05:30:40.637Z,57.03
2022-08-28T05:33:08.211Z,55.40
2022-08-28T05:35:40.244Z,54.89
2022-08-28T05:38:07.651Z,55.81
2022-08-28T05:40:35.090Z,55.05
2022-08-28T05:43:02.814Z,54.19
2022-08-28T05:45:30.330Z,54.52
2022-08-28T05:47:57.791Z,54.05
2022-08-28T05:50:25.460Z,53.43
2022-08-28T05:52:52.796Z,52.31
2022-08-28T05:55:20.170Z,53.34
2022-08-28T05:57:47.782Z,53.70
2022-08-28T06:00:15.390Z,51.43
2022-08-28T06:02:44.404Z,50.90
2022-08-28T06:05:12.888Z,52.00
2022-08-28T06:07:41.178Z,50.81
2022-08-28T06:10:10.783Z,50.17
2022-08-28T06:12:38.298Z,50.52
2022-08-28T06:15:06.063Z,51.20
2022-08-28T06:17:34.994Z,49.13
2022-08-28T06:20:02.523Z,48.86
2022-08-28T06:22:29.900Z,47.46
2022-08-28T06:24:57.686Z,47.58
2022-08-28T06:27:25.076Z,47.19
2022-08-28T06:29:52.446Z,46.87
2022-08-28T06:32:20.140Z,47.06
2022-08-28T06:34:47.572Z,45.12
2022-08-28T06:37:14.944Z,46.86
2022-08-28T06:39:42.620Z,45.47
2022-08-28T06:42:10.572Z,44.20
2022-08-28T06:44:39.221Z,44.82
2022-08-28T06:47:06.970Z,42.91
2022-08-28T06:49:35.041Z,42.55
2022-08-28T06:52:02.570Z,43.24
2022-08-28T06:54:31.126Z,41.90
2022-08-28T06:56:58.509Z,41.18
2022-08-28T06:59:26.262Z,41.33
2022-08-28T07:01:54.427Z,42.34
2022-08-28T07:04:21.938Z,44.69
2022-08-28T07:06:54.090Z,41.76
2022-08-28T07:09:22.221Z,40.21
2022-08-28T07:11:49.588Z,39.52
2022-08-28T07:14:17.012Z,38.83
2022-08-28T07:16:44.948Z,38.90
2022-08-28T07:19:12.368Z,38.37
2022-08-28T07:21:41.855Z,37.99
2022-08-28T07:24:10.617Z,37.98
2022-08-28T07:26:40.843Z,38.60
2022-08-28T07:29:11.042Z,37.78
2022-08-28T07:31:41.171Z,37.46
2022-08-28T07:34:10.050Z,36.77
2022-08-28T07:36:37.680Z,38.52
2022-08-28T07:39:05.532Z,44.42
2022-08-28T07:41:33.968Z,45.57
2022-08-28T07:44:19.911Z,48.43
2022-08-28T07:46:47.525Z,47.00
2022-08-28T07:49:18.446Z,46.94
2022-08-28T07:51:46.936Z,47.22
2022-08-28T07:54:18.074Z,44.93
2022-08-28T07:56:46.542Z,43.78
2022-08-28T07:59:16.904Z,45.36
2022-08-28T08:01:46.535Z,46.49
2022-08-28T08:04:15.937Z,48.62
2022-08-28T08:06:43.511Z,47.48
2022-08-28T08:09:12.509Z,47.43
2022-08-28T08:11:40.177Z,46.63
2022-08-28T08:14:07.672Z,46.61
2022-08-28T08:16:38.534Z,46.59
2022-08-28T08:19:06.806Z,45.57
2022-08-28T08:21:34.182Z,44.71
2022-08-28T08:24:02.072Z,44.96
2022-08-28T08:26:29.695Z,45.35
2022-08-28T08:28:57.135Z,44.83
2022-08-28T08:31:26.612Z,42.12
2022-08-28T08:33:57.198Z,41.69
2022-08-28T08:36:26.412Z,41.42
2022-08-28T08:38:59.438Z,40.48
2022-08-28T08:41:30.318Z,40.80
2022-08-28T08:44:08.032Z,43.19
2022-08-28T08:46:40.145Z,44.56
2022-08-28T08:49:13.522Z,40.10
2022-08-28T08:51:43.326Z,43.63
2022-08-28T08:54:13.042Z,36.66
2022-08-28T08:56:41.612Z,33.20
2022-08-28T08:59:20.754Z,31.72
2022-08-28T09:01:55.293Z,27.55
2022-08-28T09:04:39.777Z,26.39
2022-08-28T09:07:23.529Z,27.73
2022-08-28T09:09:52.568Z,27.10
2022-08-28T09:12:30.752Z,26.81
2022-08-28T09:15:17.606Z,28.43
2022-08-28T09:17:50.938Z,26.28
2022-08-28T09:20:21.403Z,23.47
2022-08-28T09:23:00.064Z,22.06
2022-08-28T09:25:56.496Z,22.85
2022-08-28T09:28:32.792Z,21.62
2022-08-28T09:31:15.815Z,19.85
2022-08-28T09:33:49.420Z,19.64
2022-08-28T09:36:33.030Z,19.36
2022-08-28T09:39:10.146Z,18.23
2022-08-28T09:42:12.382Z,17.06
2022-08-28T09:45:08.999Z,16.73
2022-08-28T09:47:52.591Z,21.08
2022-08-28T09:50:41.649Z,20.59
2022-08-28T09:53:08.863Z,21.16
2022-08-28T09:55:55.738Z,20.18
2022-08-28T09:58:24.080Z,20.39
2022-08-28T10:01:06.084Z,22.00
2022-08-28T10:03:35.957Z,24.93
2022-08-28T10:06:13.772Z,20.93
2022-08-28T10:09:00.156Z,22.82
2022-08-28T10:11:36.402Z,20.62
2022-08-28T10:14:14.238Z,22.80
2022-08-28T10:16:59.694Z,22.75
2022-08-28T10:19:39.146Z,25.09
2022-08-28T10:22:25.179Z,22.63
2022-08-28T10:25:03.898Z,23.57
2022-08-28T10:27:44.862Z,20.95
2022-08-28T10:30:17.653Z,18.59
2022-08-28T10:32:58.397Z,18.79
2022-08-28T10:35:35.175Z,23.84
2022-08-28T10:38:11.867Z,26.13
2022-08-28T10:40:40.677Z,28.06
2022-08-28T10:43:11.498Z,26.05
2022-08-28T10:45:39.029Z,29.03
2022-08-28T10:48:21.401Z,32.06
2022-08-28T10:51:02.367Z,30.78
2022-08-28T10:53:39.277Z,33.90
2022-08-28T10:56:24.847Z,35.33
2022-08-28T10:58:56.281Z,34.54
2022-08-28T11:01:32.247Z,35.64
2022-08-28T11:04:01.533Z,34.30
2022-08-28T11:06:53.447Z,34.51
2022-08-28T11:10:19.848Z,37.08
2022-08-28T11:12:47.276Z,34.83
2022-08-28T11:15:46.257Z,34.48
2022-08-28T11:18:16.398Z,33.76
2022-08-28T11:20:55.334Z,35.85
2022-08-28T11:23:42.125Z,36.39
2022-08-28T11:26:09.902Z,37.45
2022-08-28T11:28:43.002Z,37.27
2022-08-28T11:31:19.181Z,37.53
2022-08-28T11:33:59.042Z,37.54
2022-08-28T11:36:46.701Z,36.85
2022-08-28T11:39:14.082Z,37.63
2022-08-28T11:42:09.986Z,36.66
2022-08-28T11:44:42.313Z,36.01
2022-08-28T11:47:34.581Z,35.37
2022-08-28T11:50:13.268Z,35.22
2022-08-28T11:53:07.710Z,35.61
2022-08-28T11:55:55.706Z,35.83
2022-08-28T11:59:09.977Z,35.33
2022-08-28T12:01:37.824Z,36.10
2022-08-28T12:04:08.410Z,35.87
2022-08-28T12:06:47.111Z,38.17
2022-08-28T12:09:35.002Z,39.53
2022-08-28T12:12:22.948Z,39.66
2022-08-28T12:15:01.308Z,39.19
2022-08-28T12:17:43.643Z,39.14
2022-08-28T12:20:21.316Z,36.88
2022-08-28T12:22:52.926Z,37.96
2022-08-28T12:25:41.941Z,36.34
2022-08-28T12:28:29.333Z,36.34
2022-08-28T12:32:05.649Z,37.32
2022-08-28T12:35:00.140Z,39.12
2022-08-28T12:37:36.834Z,39.30
2022-08-28T12:40:37.172Z,39.18
2022-08-28T12:43:08.100Z,41.22
2022-08-28T12:45:52.461Z,39.70
2022-08-28T12:48:29.546Z,38.69
2022-08-28T12:51:12.786Z,40.98
2022-08-28T12:53:45.709Z,40.91
2022-08-28T12:56:14.570Z,40.92
2022-08-28T12:58:42.666Z,40.03
2022-08-28T13:01:13.440Z,40.51
2022-08-28T13:03:50.191Z,39.89
2022-08-28T13:06:26.610Z,39.94
2022-08-28T13:09:18.898Z,39.83
2022-08-28T13:11:49.115Z,39.23
2022-08-28T13:14:43.938Z,39.21
2022-08-28T13:17:11.752Z,39.40
2022-08-28T13:19:39.133Z,39.29
2022-08-28T13:22:38.566Z,38.64
2022-08-28T13:25:06.601Z,41.31
2022-08-28T13:27:34.377Z,41.66
2022-08-28T13:30:25.982Z,41.86
2022-08-28T13:33:02.018Z,41.33
2022-08-28T13:35:31.414Z,41.56
2022-08-28T13:38:04.370Z,42.99
2022-08-28T13:40:59.134Z,43.51
2022-08-28T13:43:29.314Z,45.16
2022-08-28T13:45:56.800Z,45.55
2022-08-28T13:48:25.676Z,45.17
2022-08-28T13:50:56.982Z,45.03
2022-08-28T13:53:24.408Z,45.06
2022-08-28T13:55:51.817Z,45.33
2022-08-28T13:58:19.712Z,44.17
2022-08-28T14:00:48.952Z,44.17
2022-08-28T14:03:35.336Z,43.51
2022-08-28T14:06:04.482Z,42.98
2022-08-28T14:08:32.105Z,42.27
2022-08-28T14:10:59.558Z,43.02
2022-08-28T14:13:27.848Z,42.20
2022-08-28T14:15:56.064Z,43.02
2022-08-28T14:18:24.585Z,42.87
2022-08-28T14:20:51.996Z,42.52
2022-08-28T14:23:19.719Z,42.40
2022-08-28T14:25:47.388Z,41.56
2022-08-28T14:28:14.892Z,43.73
2022-08-28T14:30:47.017Z,42.56
2022-08-28T14:33:16.846Z,43.19
2022-08-28T14:35:44.555Z,41.54
2022-08-28T14:38:11.984Z,42.18
2022-08-28T14:40:40.594Z,41.55
2022-08-28T14:43:10.053Z,43.41
2022-08-28T14:45:43.473Z,43.22
2022-08-28T14:48:11.218Z,43.09
2022-08-28T14:50:40.939Z,43.07
2022-08-28T14:53:08.630Z,42.78
2022-08-28T14:55:41.008Z,44.78
2022-08-28T14:58:08.469Z,43.98
2022-08-28T15:00:43.016Z,45.33
2022-08-28T15:03:10.601Z,44.81
2022-08-28T15:05:38.453Z,43.45
2022-08-28T15:08:09.338Z,43.85
2022-08-28T15:10:42.998Z,43.94
2022-08-28T15:13:10.920Z,43.70
2022-08-28T15:15:39.563Z,44.04
2022-08-28T15:18:07.451Z,45.06
2022-08-28T15:20:43.093Z,45.21
2022-08-28T15:23:10.835Z,44.84
2022-08-28T15:25:38.601Z,46.20
2022-08-28T15:28:06.083Z,44.70
2022-08-28T15:30:33.490Z,44.70
2022-08-28T15:33:01.171Z,45.25
2022-08-28T15:35:28.566Z,45.60
2022-08-28T15:37:55.988Z,45.51
2022-08-28T15:40:42.640Z,46.37
2022-08-28T15:43:10.090Z,47.10
2022-08-28T15:45:38.516Z,46.39
2022-08-28T15:48:06.000Z,47.08
2022-08-28T15:50:33.393Z,46.14
2022-08-28T15:53:01.254Z,45.64
2022-08-28T15:55:28.790Z,48.59
2022-08-28T15:57:56.180Z,46.98
2022-08-28T16:00:23.796Z,46.67
2022-08-28T16:02:51.462Z,47.15
2022-08-28T16:05:18.860Z,47.01
2022-08-28T16:07:46.555Z,47.78
2022-08-28T16:10:14.284Z,46.03
2022-08-28T16:12:41.639Z,46.77
2022-08-28T16:15:09.560Z,46.63
2022-08-28T16:17:37.313Z,46.54
2022-08-28T16:20:11.068Z,47.60
2022-08-28T16:22:40.827Z,47.26
2022-08-28T16:25:09.689Z,47.99
2022-08-28T16:27:37.069Z,47.16
2022-08-28T16:30:06.533Z,46.14
2022-08-28T16:32:46.735Z,45.89
2022-08-28T16:35:15.723Z,45.97
2022-08-28T16:37:43.350Z,47.11
2022-08-28T16:40:10.976Z,46.10
2022-08-28T16:42:38.694Z,46.41
2022-08-28T16:45:06.381Z,46.80
2022-08-28T16:47:34.040Z,46.86
2022-08-28T16:50:04.582Z,46.68
2022-08-28T16:52:32.045Z,48.60
2022-08-28T16:54:59.954Z,48.15
2022-08-28T16:57:27.677Z,48.51
2022-08-28T16:59:55.379Z,46.96
2022-08-28T17:02:26.534Z,46.15
2022-08-28T17:04:54.704Z,45.15
2022-08-28T17:07:22.129Z,46.74
2022-08-28T17:09:49.464Z,48.01
2022-08-28T17:12:17.112Z,48.14
2022-08-28T17:14:44.913Z,47.08
2022-08-28T17:17:12.268Z,48.66
2022-08-28T17:19:39.961Z,47.93
2022-08-28T17:22:27.318Z,47.14
2022-08-28T17:24:55.296Z,47.29
2022-08-28T17:27:23.485Z,46.82
2022-08-28T17:29:51.081Z,46.93
2022-08-28T17:32:18.873Z,45.73
2022-08-28T17:34:46.231Z,46.93
2022-08-28T17:37:13.714Z,45.55
2022-08-28T17:39:41.408Z,48.64
2022-08-28T17:42:09.110Z,48.54
2022-08-28T17:44:36.521Z,48.37
2022-08-28T17:47:04.473Z,47.87
2022-08-28T17:49:31.983Z,47.67
2022-08-28T17:51:59.402Z,46.98
2022-08-28T17:54:27.050Z,46.26
2022-08-28T17:56:54.538Z,46.26
2022-08-28T17:59:22.512Z,47.33
2022-08-28T18:01:50.201Z,46.48
2022-08-28T18:04:23.226Z,47.46
2022-08-28T18:06:54.244Z,46.34
2022-08-28T18:09:23.052Z,45.74
2022-08-28T18:11:50.662Z,48.67
2022-08-28T18:14:18.208Z,46.76
2022-08-28T18:16:45.963Z,47.45
2022-08-28T18:19:13.978Z,47.17
2022-08-28T18:21:41.589Z,47.91
2022-08-28T18:24:10.337Z,48.25
2022-08-28T18:26:40.224Z,47.66
2022-08-28T18:29:07.833Z,49.53
2022-08-28T18:31:35.713Z,49.20
2022-08-28T18:34:03.658Z,50.16
2022-08-28T18:36:31.257Z,48.44
2022-08-28T18:38:59.516Z,48.13
2022-08-28T18:41:32.636Z,49.79
2022-08-28T18:44:12.037Z,48.01
2022-08-28T18:46:40.026Z,49.15
2022-08-28T18:49:09.045Z,51.01
2022-08-28T18:51:40.805Z,51.43
2022-08-28T18:54:08.354Z,51.05
2022-08-28T18:56:38.325Z,49.37
2022-08-28T18:59:06.501Z,49.12
2022-08-28T19:01:34.119Z,51.99
2022-08-28T19:04:01.929Z,52.33
2022-08-28T19:06:29.577Z,52.43
2022-08-28T19:09:02.133Z,52.61
2022-08-28T19:11:31.449Z,53.13
2022-08-28T19:13:59.546Z,52.42
2022-08-28T19:16:32.153Z,54.03
2022-08-28T19:19:00.412Z,51.78
2022-08-28T19:21:29.129Z,52.64
2022-08-28T19:23:56.959Z,52.90
2022-08-28T19:26:29.635Z,53.42
2022-08-28T19:28:58.317Z,54.79
2022-08-28T19:31:25.839Z,55.60
2022-08-28T19:33:54.328Z,54.65
2022-08-28T19:36:22.501Z,54.82
2022-08-28T19:38:50.169Z,55.62
2022-08-28T19:41:17.633Z,56.96
2022-08-28T19:43:46.268Z,54.76
2022-08-28T19:46:19.621Z,57.19
2022-08-28T19:48:51.253Z,57.11
2022-08-28T19:51:23.514Z,54.97
2022-08-28T19:53:58.247Z,55.61
2022-08-28T19:56:27.939Z,55.80
2022-08-28T19:59:00.530Z,56.66
2022-08-28T20:01:37.892Z,56.42
2022-08-28T20:04:07.039Z,58.53
2022-08-28T20:06:35.074Z,58.31
2022-08-28T20:09:03.301Z,58.12
2022-08-28T20:11:33.312Z,58.43
2022-08-28T20:14:04.887Z,59.50
2022-08-28T20:16:35.109Z,60.72
2022-08-28T20:19:04.034Z,59.89
2022-08-28T20:21:37.618Z,58.41
2022-08-28T20:24:10.995Z,60.35
2022-08-28T20:26:39.657Z,63.27
2022-08-28T20:29:08.564Z,62.43
2022-08-28T20:31:38.085Z,62.42
2022-08-28T20:34:05.992Z,63.59
2022-08-28T20:36:33.753Z,63.77
2022-08-28T20:39:03.972Z,64.07
2022-08-28T20:41:31.629Z,64.84
2022-08-28T20:44:01.159Z,63.41
2022-08-28T20:46:31.864Z,64.27
2022-08-28T20:48:59.709Z,63.31
2022-08-28T20:51:45.826Z,64.72
2022-08-28T20:54:13.556Z,65.18
2022-08-28T20:56:41.117Z,62.92
2022-08-28T20:59:09.125Z,63.44
2022-08-28T21:01:36.875Z,66.27
2022-08-28T21:04:04.656Z,65.77
2022-08-28T21:06:32.124Z,66.16
2022-08-28T21:08:59.757Z,65.18
2022-08-28T21:11:27.186Z,66.11
2022-08-28T21:13:55.389Z,66.41
2022-08-28T21:16:23.122Z,65.46
2022-08-28T21:19:12.130Z,62.77
2022-08-28T21:21:38.171Z,65.44
2022-08-28T21:24:06.986Z,69.88
2022-08-28T21:26:34.406Z,68.25
2022-08-28T21:29:02.104Z,69.19
2022-08-28T21:31:29.467Z,69.46
2022-08-28T21:33:56.864Z,70.29
2022-08-28T21:36:24.572Z,70.29
2022-08-28T21:38:51.923Z,70.37
2022-08-28T21:41:19.297Z,68.04
2022-08-28T21:43:46.953Z,70.70
2022-08-28T21:46:15.347Z,71.36
2022-08-28T21:48:42.852Z,71.07
2022-08-28T21:51:11.917Z,68.97
2022-08-28T21:53:39.850Z,69.43
2022-08-28T21:56:07.992Z,69.90
2022-08-28T21:58:36.261Z,68.26
2022-08-28T22:01:03.873Z,68.00
2022-08-28T22:03:31.558Z,66.73
2022-08-28T22:05:58.992Z,68.92
2022-08-28T22:08:27.350Z,70.38
2022-08-28T22:10:55.864Z,69.87
2022-08-28T22:13:23.486Z,68.42
2022-08-28T22:15:50.872Z,71.08
2022-08-28T22:18:18.505Z,69.11
2022-08-28T22:21:05.100Z,68.93
2022-08-28T22:23:34.827Z,68.20
2022-08-28T22:26:07.093Z,69.02
2022-08-28T22:28:34.755Z,70.91
2022-08-28T22:31:02.392Z,69.44
2022-08-28T22:33:33.621Z,69.99
2022-08-28T22:36:01.381Z,71.02
2022-08-28T22:38:29.440Z,70.84
2022-08-28T22:40:57.440Z,72.27
2022-08-28T22:43:25.114Z,71.71
2022-08-28T22:45:52.542Z,73.27
2022-08-28T22:48:19.995Z,72.68
2022-08-28T22:50:47.711Z,72.79
2022-08-28T22:53:17.400Z,74.44
2022-08-28T22:55:44.972Z,74.32
2022-08-28T22:58:13.037Z,74.02
2022-08-28T23:00:40.521Z,75.61
2022-08-28T23:03:07.964Z,74.17
2022-08-28T23:05:35.698Z,72.92
2022-08-28T23:08:03.214Z,71.73
2022-08-28T23:10:55.321Z,70.41
2022-08-28T23:13:19.629Z,72.43
2022-08-28T23:15:48.265Z,74.59
2022-08-28T23:18:16.310Z,76.01
2022-08-28T23:20:44.989Z,74.90
2022-08-28T23:23:12.487Z,74.76
2022-08-28T23:25:39.872Z,75.05
2022-08-28T23:28:07.576Z,76.41
2022-08-28T23:30:34.957Z,75.89
2022-08-28T23:33:03.691Z,77.53
2022-08-28T23:35:36.344Z,76.75
2022-08-28T23:38:04.332Z,77.76
2022-08-28T23:40:33.938Z,76.38
2022-08-28T23:43:04.148Z,76.86
2022-08-28T23:45:31.533Z,73.96
2022-08-28T23:47:58.999Z,74.85
2022-08-28T23:50:27.435Z,77.20
2022-08-28T23:52:54.801Z,78.65
2022-08-28T23:55:22.532Z,77.15
2022-08-28T23:57:54.845Z,76.01
